Terminal Aerodrome Forecast
Issued by NWS Pittsburgh, PA

Current Version | Previous Version | Graphics & Text | Print | Product List | Glossary On
Versions: 1 2 3 4 5 6 7 8 9 10 11 12 13 14 15 16 17 18 19 20 21 22 23 24 25 26
484
FTUS41 KPBZ 232055 AAA
TAFPIT
TAF AMD
KPIT 232055Z 2321/2424 24007KT 6SM SHRA BKN025 OVC035
      TEMPO 2321/2324 3SM SHRA BKN015
     FM240200 26006KT 5SM BR BKN012
     FM240400 26004KT P6SM VCSH OVC006
     FM241000 28006KT 2SM BR SCT004=

USA.gov is the U.S. government's official web portal to all federal, state and local government web resources and services.